Time;durP1;ratioP1;P1;durP2;ratioP2;P2;SDS_P1;SDS_P2;PMS_P1;PMS_P2;Temp;Humidity;BMP_temperature;BMP_pressure;BME280_temperature;BME280_humidity;BME280_pressure;Samples;Min_cycle;Max_cycle;Signal;HPM_P1;HPM_P2
2023/06/15 00:00:17;;;;;;;6.07;3.88;;;;;;;12.96;62.97;95993.56;2026334;29;20054;-61
2023/06/15 00:01:19;;;;;;;6.03;4.30;;;;;;;12.89;63.50;95984.41;2026609;29;20049;-61
2023/06/15 00:02:20;;;;;;;6.95;4.38;;;;;;;12.85;63.31;95982.06;2026628;29;20036;-61
2023/06/15 00:03:21;;;;;;;6.38;4.28;;;;;;;12.83;63.36;95982.16;2026024;29;20056;-61
2023/06/15 00:04:22;;;;;;;7.63;4.60;;;;;;;12.80;63.75;95990.97;2029167;29;20373;-61
2023/06/15 00:05:23;;;;;;;5.68;3.80;;;;;;;12.77;63.62;95988.53;2026690;29;20052;-61
2023/06/15 00:06:25;;;;;;;6.25;4.18;;;;;;;12.77;63.50;95990.28;2026536;29;20052;-61
2023/06/15 00:07:26;;;;;;;7.85;4.13;;;;;;;12.72;64.12;95990.56;2026452;29;20449;-61
2023/06/15 00:08:27;;;;;;;5.70;4.10;;;;;;;12.72;64.38;95989.72;2026584;29;20088;-61
2023/06/15 00:09:28;;;;;;;7.15;4.22;;;;;;;12.76;64.16;95983.41;2026725;29;20044;-61
2023/06/15 00:10:29;;;;;;;8.52;4.47;;;;;;;12.74;63.83;95986.09;2025811;29;20048;-61
2023/06/15 00:11:30;;;;;;;6.15;4.13;;;;;;;12.74;63.85;95985.25;2026512;29;20060;-61
2023/06/15 00:12:32;;;;;;;9.65;4.50;;;;;;;12.73;63.71;95980.97;2026267;29;20358;-61
2023/06/15 00:13:33;;;;;;;6.05;4.50;;;;;;;12.70;63.95;95982.00;2026095;29;20381;-61
2023/06/15 00:14:36;;;;;;;6.53;4.22;;;;;;;12.70;64.30;95997.63;2026033;29;20115;-61
2023/06/15 00:15:39;;;;;;;7.78;4.53;;;;;;;12.61;64.01;95971.22;2017998;29;20481;-61
2023/06/15 00:16:41;;;;;;;6.07;4.20;;;;;;;12.66;64.43;95990.06;2017679;29;20053;-61
2023/06/15 00:17:43;;;;;;;6.50;4.18;;;;;;;12.63;64.18;95985.03;2025800;29;20061;-61
2023/06/15 00:18:47;;;;;;;5.47;4.25;;;;;;;12.58;64.47;95985.25;2026378;29;20489;-61
2023/06/15 00:19:48;;;;;;;6.63;4.40;;;;;;;12.54;64.34;95984.59;2026028;29;20083;-61
2023/06/15 00:20:49;;;;;;;7.45;4.35;;;;;;;12.57;64.92;95992.25;2026037;29;20075;-61
2023/06/15 00:21:53;;;;;;;8.15;4.55;;;;;;;12.55;65.20;95990.66;2026233;29;20071;-61
2023/06/15 00:22:55;;;;;;;6.50;4.38;;;;;;;12.54;65.17;95995.03;2026422;29;20044;-61
2023/06/15 00:23:56;;;;;;;5.80;4.13;;;;;;;12.52;64.67;95999.47;2025999;29;20076;-61
2023/06/15 00:24:57;;;;;;;5.82;4.53;;;;;;;12.52;65.49;95991.66;2026196;29;20083;-61
2023/06/15 00:25:58;;;;;;;7.40;4.30;;;;;;;12.54;65.10;95999.41;2025837;29;20068;-61
2023/06/15 00:26:59;;;;;;;6.57;4.43;;;;;;;12.52;65.19;95996.88;2026381;29;20401;-61
2023/06/15 00:28:01;;;;;;;8.15;5.53;;;;;;;12.53;64.78;95993.31;2026476;29;20040;-61
2023/06/15 00:29:02;;;;;;;8.85;4.85;;;;;;;12.49;65.16;95980.56;2025955;29;20061;-61
2023/06/15 00:30:04;;;;;;;7.28;4.82;;;;;;;12.62;64.49;95999.81;2018075;29;20049;-61
2023/06/15 00:31:05;;;;;;;8.32;5.07;;;;;;;12.63;64.81;95991.06;2018135;29;20481;-61
2023/06/15 00:32:08;;;;;;;5.85;4.10;;;;;;;12.71;64.68;95986.25;2017739;29;20045;-61
2023/06/15 00:33:09;;;;;;;8.07;4.47;;;;;;;12.77;64.03;95995.50;2010332;29;20094;-61
2023/06/15 00:34:10;;;;;;;8.50;5.22;;;;;;;12.82;63.92;96001.31;2017651;29;20428;-61
2023/06/15 00:35:11;;;;;;;6.80;4.13;;;;;;;12.86;64.10;95995.00;2018054;29;20061;-61
2023/06/15 00:36:12;;;;;;;6.07;4.70;;;;;;;12.88;63.72;95995.75;2018348;29;20053;-61
2023/06/15 00:37:14;;;;;;;8.05;4.75;;;;;;;12.89;63.66;95997.44;2018036;29;20523;-61
2023/06/15 00:38:15;;;;;;;7.45;4.32;;;;;;;12.89;63.48;95999.22;2010233;29;20052;-61
2023/06/15 00:39:18;;;;;;;9.48;4.50;;;;;;;12.87;64.08;95994.06;2018227;29;20478;-61
2023/06/15 00:40:19;;;;;;;7.95;4.53;;;;;;;12.87;64.15;95993.22;2018012;29;20053;-61
2023/06/15 00:41:21;;;;;;;5.57;4.18;;;;;;;12.90;63.74;95999.09;2017975;29;20053;-61
2023/06/15 00:42:22;;;;;;;8.50;4.72;;;;;;;12.91;63.17;96005.16;2026377;29;20045;-61
2023/06/15 00:43:23;;;;;;;6.45;4.70;;;;;;;12.95;63.53;95996.25;2025848;29;20060;-61
2023/06/15 00:44:24;;;;;;;7.28;4.55;;;;;;;12.98;63.40;95999.50;2025654;29;20119;-62
2023/06/15 00:45:25;;;;;;;10.40;4.63;;;;;;;12.98;63.40;96001.28;2026265;29;20049;-61
2023/06/15 00:46:26;;;;;;;5.47;4.63;;;;;;;12.99;63.08;95998.59;2025686;29;20079;-61
2023/06/15 00:47:27;;;;;;;6.28;4.45;;;;;;;13.03;63.21;96000.09;2026309;29;20378;-61
2023/06/15 00:48:29;;;;;;;7.20;4.75;;;;;;;13.10;62.95;95999.75;2026127;29;20061;-61
2023/06/15 00:49:31;;;;;;;5.70;4.30;;;;;;;13.06;63.10;95995.63;2026663;29;20072;-61
2023/06/15 00:50:32;;;;;;;6.22;4.50;;;;;;;13.19;62.11;96002.66;2025594;29;20056;-61
2023/06/15 00:51:34;;;;;;;6.63;4.50;;;;;;;13.12;62.54;95988.28;2017957;29;20057;-61
2023/06/15 00:52:35;;;;;;;5.93;4.38;;;;;;;13.21;62.78;95997.38;2017541;29;20124;-61
2023/06/15 00:53:37;;;;;;;6.93;4.80;;;;;;;13.10;62.61;95987.56;2026117;29;20045;-61
2023/06/15 00:54:40;;;;;;;7.32;4.00;;;;;;;13.11;62.79;95985.78;2025858;29;20056;-61
2023/06/15 00:55:41;;;;;;;7.30;4.95;;;;;;;13.20;62.68;96008.72;2010072;29;20061;-61
2023/06/15 00:56:42;;;;;;;7.45;4.63;;;;;;;13.19;62.92;96009.66;2010456;29;20068;-61
2023/06/15 00:57:44;;;;;;;7.22;4.47;;;;;;;13.15;62.69;96003.78;2017544;29;20521;-61
2023/06/15 00:58:45;;;;;;;8.45;4.68;;;;;;;13.14;62.88;96003.84;2017673;29;20498;-61
2023/06/15 00:59:46;;;;;;;14.88;5.10;;;;;;;13.12;62.89;96005.72;2017357;29;20053;-61
2023/06/15 01:00:48;;;;;;;6.85;4.45;;;;;;;13.10;62.82;96005.81;2002452;29;20050;-61
2023/06/15 01:01:54;;;;;;;5.63;4.65;;;;;;;13.16;63.46;96005.44;2010355;29;20057;-61
2023/06/15 01:02:56;;;;;;;6.40;4.85;;;;;;;13.16;63.27;96004.63;2010295;29;20378;-61
2023/06/15 01:03:59;;;;;;;6.80;4.63;;;;;;;13.15;62.97;96003.78;2009977;29;20057;-61
2023/06/15 01:05:00;;;;;;;6.47;4.63;;;;;;;13.12;63.53;96003.94;2017530;29;20053;-61
2023/06/15 01:06:10;;;;;;;5.45;4.60;;;;;;;13.13;63.58;96007.41;2017666;29;20052;-61
2023/06/15 01:07:12;;;;;;;6.68;4.15;;;;;;;13.10;62.79;96002.38;2019062;29;20092;-61
2023/06/15 01:08:15;;;;;;;8.50;4.80;;;;;;;13.01;62.69;95993.28;2010197;29;20473;-61
2023/06/15 01:09:16;;;;;;;8.40;4.60;;;;;;;13.05;62.80;96004.41;2010360;29;20045;-62
2023/06/15 01:10:18;;;;;;;7.32;4.78;;;;;;;13.05;63.29;96007.84;2010111;29;20093;-61
2023/06/15 01:11:21;;;;;;;7.40;4.78;;;;;;;13.02;63.47;96003.63;2002476;29;20518;-61
2023/06/15 01:12:22;;;;;;;13.63;4.50;;;;;;;12.97;63.66;96005.66;2010647;29;20046;-61
2023/06/15 01:13:23;;;;;;;6.45;4.55;;;;;;;12.93;63.65;96014.56;2010169;29;20360;-61
2023/06/15 01:14:26;;;;;;;5.75;4.68;;;;;;;12.93;64.28;96009.34;1995136;29;20054;-61
2023/06/15 01:15:28;;;;;;;6.25;4.53;;;;;;;12.88;64.28;96006.16;2002658;29;20076;-61
2023/06/15 01:16:39;;;;;;;5.95;4.50;;;;;;;12.84;64.12;96009.88;2002225;29;20502;-61
2023/06/15 01:17:45;;;;;;;8.98;4.28;;;;;;;12.77;64.24;96005.94;2003719;29;20069;-61
2023/06/15 01:18:47;;;;;;;6.55;4.50;;;;;;;12.74;64.67;96006.94;2004013;29;20137;-63
2023/06/15 01:20:04;;;;;;;7.22;4.63;;;;;;;12.72;64.46;96010.56;2009937;29;20490;-61
2023/06/15 01:21:06;;;;;;;6.32;4.13;;;;;;;12.71;64.67;95999.28;2011732;29;20474;-61
2023/06/15 01:22:20;;;;;;;7.60;4.78;;;;;;;12.68;64.86;96004.69;2004515;29;20062;-61
2023/06/15 01:23:31;;;;;;;6.45;4.53;;;;;;;12.56;64.92;95994.91;2013608;29;20217;-61
2023/06/15 01:24:35;;;;;;;6.10;4.65;;;;;;;12.58;65.09;96006.09;2026004;29;20045;-61
2023/06/15 01:25:41;;;;;;;6.78;4.07;;;;;;;12.56;65.50;96006.22;2017465;29;20450;-61
2023/06/15 01:26:46;;;;;;;9.25;4.82;;;;;;;12.49;65.72;95999.66;2003002;29;20064;-72
2023/06/15 01:27:49;;;;;;;6.97;4.85;;;;;;;12.44;65.78;96000.81;1995420;29;20069;-71
2023/06/15 01:28:50;;;;;;;7.60;4.95;;;;;;;12.40;65.72;96000.13;2004095;29;20037;-71
2023/06/15 01:29:52;;;;;;;8.88;5.05;;;;;;;12.31;65.69;95995.44;2017839;29;20537;-70
2023/06/15 01:30:53;;;;;;;7.03;4.55;;;;;;;12.30;66.80;95997.19;2009539;29;20502;-71
2023/06/15 01:31:57;;;;;;;8.18;5.28;;;;;;;12.28;66.09;95996.44;2010046;29;20431;-72
2023/06/15 01:33:00;;;;;;;9.20;4.95;;;;;;;12.19;66.24;95980.47;2017231;29;20057;-72
2023/06/15 01:34:01;;;;;;;8.63;5.00;;;;;;;12.24;66.22;96007.09;2018039;29;20048;-71
2023/06/15 01:35:02;;;;;;;7.15;4.85;;;;;;;12.20;66.33;95998.63;2025617;29;20061;-72
2023/06/15 01:36:04;;;;;;;8.70;4.80;;;;;;;12.16;66.89;96006.66;2017387;29;20072;-70
2023/06/15 01:37:05;;;;;;;7.72;5.07;;;;;;;12.09;67.14;95995.75;2017862;29;20501;-72
2023/06/15 01:38:06;;;;;;;8.00;5.50;;;;;;;12.09;66.58;95993.16;2016428;29;20053;-72
2023/06/15 01:39:07;;;;;;;10.15;5.13;;;;;;;11.97;67.08;95978.16;2010123;29;20064;-71
2023/06/15 01:40:09;;;;;;;8.35;5.00;;;;;;;12.03;67.76;95988.25;2002422;29;20046;-71
2023/06/15 01:41:10;;;;;;;6.25;4.47;;;;;;;11.95;67.47;95982.59;1994859;29;20046;-72
2023/06/15 01:42:11;;;;;;;9.40;4.57;;;;;;;12.00;67.55;95999.69;2001962;29;20053;-71
2023/06/15 01:43:15;;;;;;;7.40;4.80;;;;;;;11.93;67.74;95974.91;2002323;29;20050;-70
2023/06/15 01:44:16;;;;;;;9.15;4.63;;;;;;;11.98;67.74;95990.28;1995504;29;20034;-71
2023/06/15 01:45:17;;;;;;;9.70;5.13;;;;;;;11.89;67.96;95982.03;1987252;29;20047;-71
2023/06/15 01:46:18;;;;;;;9.43;5.43;;;;;;;11.94;68.13;95991.34;2002378;29;20102;-71
2023/06/15 01:47:19;;;;;;;7.97;5.05;;;;;;;11.93;68.05;95994.88;2009879;29;20117;-71
2023/06/15 01:48:23;;;;;;;6.75;4.63;;;;;;;11.90;68.25;95994.13;2002384;29;20062;-71
2023/06/15 01:49:25;;;;;;;5.93;4.60;;;;;;;11.78;68.10;95979.09;2002478;29;20127;-71
2023/06/15 01:50:27;;;;;;;6.55;5.07;;;;;;;11.87;68.60;95988.25;2002922;29;20067;-70
2023/06/15 01:51:29;;;;;;;8.68;5.25;;;;;;;11.84;67.87;95989.22;2009833;29;20380;-71
2023/06/15 01:52:30;;;;;;;9.60;5.10;;;;;;;11.84;68.92;95990.94;2009832;29;20074;-72
2023/06/15 01:53:31;;;;;;;7.38;5.10;;;;;;;11.81;68.89;95989.34;2016500;29;20080;-71
2023/06/15 01:54:32;;;;;;;7.28;4.68;;;;;;;11.75;68.98;95987.06;2009229;29;20076;-72
2023/06/15 01:55:34;;;;;;;8.73;4.72;;;;;;;11.72;68.92;95991.59;2009373;29;20410;-70
2023/06/15 01:56:35;;;;;;;5.90;4.85;;;;;;;11.68;69.10;95994.38;2009657;29;20065;-71
2023/06/15 01:57:37;;;;;;;8.10;5.43;;;;;;;11.67;69.34;95994.44;1994635;29;20050;-72
2023/06/15 01:58:38;;;;;;;7.22;4.80;;;;;;;11.63;69.34;96004.16;2010171;29;20045;-71
2023/06/15 01:59:39;;;;;;;6.30;4.75;;;;;;;11.60;69.56;95999.13;2009428;29;20080;-71
2023/06/15 02:00:41;;;;;;;5.55;4.60;;;;;;;11.59;70.28;95997.41;2002075;29;20072;-71
2023/06/15 02:01:42;;;;;;;8.65;4.63;;;;;;;11.56;70.42;95997.59;2017355;29;20044;-71
2023/06/15 02:02:43;;;;;;;6.90;4.88;;;;;;;11.56;69.74;96000.19;2017744;29;20509;-71
2023/06/15 02:03:44;;;;;;;9.07;5.93;;;;;;;11.51;70.35;95996.97;2016932;29;20067;-70
2023/06/15 02:04:46;;;;;;;7.80;5.20;;;;;;;11.40;69.82;95981.09;2017404;29;20049;-71
2023/06/15 02:05:47;;;;;;;10.50;5.00;;;;;;;11.45;70.41;95999.91;2025816;29;20044;-72
2023/06/15 02:06:49;;;;;;;7.72;5.60;;;;;;;11.45;70.44;95994.69;2017369;29;20071;-70
2023/06/15 02:07:51;;;;;;;8.25;5.43;;;;;;;11.43;70.66;95996.53;2009302;29;20061;-72
2023/06/15 02:08:53;;;;;;;10.82;5.28;;;;;;;11.43;71.07;96006.94;2009624;29;20053;-70
2023/06/15 02:09:54;;;;;;;7.53;4.72;;;;;;;11.40;70.39;96002.72;2016967;29;20076;-71
2023/06/15 02:10:55;;;;;;;7.30;5.35;;;;;;;11.39;70.55;96005.41;2016962;29;20060;-71
2023/06/15 02:11:57;;;;;;;7.10;5.18;;;;;;;11.37;71.31;96002.03;2009332;29;20562;-70
2023/06/15 02:12:59;;;;;;;6.85;5.15;;;;;;;11.29;70.41;95993.78;2017351;29;20044;-71
2023/06/15 02:14:01;;;;;;;7.70;5.78;;;;;;;11.34;70.52;96003.03;2009639;29;20395;-70
2023/06/15 02:15:02;;;;;;;6.95;5.10;;;;;;;11.36;71.00;96001.22;2009904;29;20044;-71
2023/06/15 02:16:06;;;;;;;7.13;5.00;;;;;;;11.38;71.54;96003.72;2008859;29;20071;-71
2023/06/15 02:17:08;;;;;;;8.75;5.10;;;;;;;11.43;71.31;96004.31;2009951;29;20071;-71
2023/06/15 02:18:16;;;;;;;8.93;4.80;;;;;;;11.41;71.35;96008.75;2017494;29;20045;-70
2023/06/15 02:19:22;;;;;;;7.65;4.93;;;;;;;11.38;70.71;96003.72;2017491;29;20497;-71
2023/06/15 02:20:23;;;;;;;8.80;5.25;;;;;;;11.35;71.06;96007.31;2017516;29;20068;-71
2023/06/15 02:21:24;;;;;;;5.80;4.80;;;;;;;11.32;71.21;96001.44;2017658;29;20061;-70
2023/06/15 02:22:25;;;;;;;5.43;4.60;;;;;;;11.36;70.92;96001.22;2016887;29;20072;-71
2023/06/15 02:23:26;;;;;;;7.60;5.28;;;;;;;11.33;70.91;95998.72;2017088;29;20441;-71
2023/06/15 02:24:27;;;;;;;7.95;5.40;;;;;;;11.32;70.96;96002.25;2017415;29;20056;-71
2023/06/15 02:25:30;;;;;;;8.70;5.03;;;;;;;11.30;70.83;95993.69;2025948;29;20052;-70
2023/06/15 02:26:31;;;;;;;7.57;5.32;;;;;;;11.29;71.50;95999.00;2025416;29;20057;-71
2023/06/15 02:27:33;;;;;;;8.13;5.10;;;;;;;11.23;71.25;95987.97;2025247;29;20424;-71
2023/06/15 02:28:35;;;;;;;8.10;5.68;;;;;;;11.29;70.92;95996.38;2025469;29;20484;-72
2023/06/15 02:29:38;;;;;;;7.85;5.30;;;;;;;11.29;71.05;96005.03;2016781;29;20053;-71
2023/06/15 02:30:39;;;;;;;7.15;5.38;;;;;;;11.29;71.03;95999.00;2017036;29;20065;-71
2023/06/15 02:31:40;;;;;;;8.60;5.35;;;;;;;11.28;71.75;96000.75;2016709;29;20061;-71
2023/06/15 02:32:42;;;;;;;7.40;5.00;;;;;;;11.27;71.10;96005.09;2016959;29;20061;-71
2023/06/15 02:33:44;;;;;;;8.77;5.40;;;;;;;11.24;71.67;96002.63;2017399;29;20389;-71
2023/06/15 02:34:45;;;;;;;7.22;4.93;;;;;;;11.24;71.54;95996.59;2017160;29;20057;-70
2023/06/15 02:35:46;;;;;;;7.40;4.82;;;;;;;11.22;71.90;95998.44;2025815;29;20052;-71
2023/06/15 02:36:48;;;;;;;11.02;5.22;;;;;;;11.18;72.23;96000.34;2024981;29;20485;-71
2023/06/15 02:37:49;;;;;;;7.28;5.13;;;;;;;11.17;71.89;95995.22;2009998;29;20064;-71
2023/06/15 02:38:51;;;;;;;10.65;5.25;;;;;;;11.15;71.58;95995.31;2008937;29;20057;-71
2023/06/15 02:39:53;;;;;;;7.55;5.03;;;;;;;11.15;72.58;95997.06;2016882;29;20068;-72
2023/06/15 02:40:55;;;;;;;9.20;5.45;;;;;;;11.11;72.63;96000.72;2009721;29;20060;-71
2023/06/15 02:41:57;;;;;;;6.55;5.05;;;;;;;11.12;72.46;95992.00;2009303;29;20060;-71
2023/06/15 02:42:59;;;;;;;8.60;5.72;;;;;;;11.17;72.36;96006.47;2009588;29;20046;-72
2023/06/15 02:44:01;;;;;;;7.93;5.07;;;;;;;11.18;72.43;95996.91;2009535;29;20060;-71
2023/06/15 02:45:06;;;;;;;8.02;5.05;;;;;;;11.10;72.30;95988.66;2009021;29;20061;-71
2023/06/15 02:46:07;;;;;;;11.75;5.15;;;;;;;11.13;72.61;96001.50;2010372;29;20399;-71
2023/06/15 02:47:09;;;;;;;6.18;4.97;;;;;;;11.11;73.02;95995.53;2016897;29;20049;-71
2023/06/15 02:48:10;;;;;;;8.65;5.55;;;;;;;11.13;72.74;96002.34;2009387;29;20049;-72
2023/06/15 02:49:11;;;;;;;8.07;5.82;;;;;;;11.09;72.43;96000.78;2009655;29;20057;-71
2023/06/15 02:50:14;;;;;;;7.82;5.82;;;;;;;11.07;73.04;96001.81;2010301;29;20553;-72
2023/06/15 02:51:20;;;;;;;6.78;5.50;;;;;;;11.02;72.65;96007.22;2011658;29;20513;-71
2023/06/15 02:52:22;;;;;;;9.93;5.53;;;;;;;11.00;73.45;96009.88;2018874;29;20045;-72
2023/06/15 02:53:23;;;;;;;7.18;5.30;;;;;;;10.98;73.65;96008.28;2011266;29;20046;-71
2023/06/15 02:54:29;;;;;;;7.78;5.43;;;;;;;10.94;73.50;96011.97;2011070;29;20057;-71
2023/06/15 02:55:33;;;;;;;7.78;5.07;;;;;;;10.86;73.58;96004.53;2011193;29;20458;-70
2023/06/15 02:56:36;;;;;;;9.15;5.40;;;;;;;10.90;74.19;96008.63;2018393;29;20067;-72
2023/06/15 02:57:37;;;;;;;9.52;5.75;;;;;;;10.89;74.40;96013.94;2018875;29;20053;-71
2023/06/15 02:58:55;;;;;;;9.05;5.32;;;;;;;10.79;73.48;96003.13;2019126;29;20045;-70
2023/06/15 03:00:12;;;;;;;8.45;5.32;;;;;;;10.73;73.60;95987.84;2012784;29;20453;-70
2023/06/15 03:01:16;;;;;;;6.95;5.22;;;;;;;10.85;74.29;96012.38;2012037;29;20061;-72
2023/06/15 03:02:23;;;;;;;6.50;5.28;;;;;;;10.84;74.17;96013.31;2011849;29;20521;-71
2023/06/15 03:03:27;;;;;;;12.65;5.88;;;;;;;10.85;74.51;96014.97;2010771;29;20062;-70
2023/06/15 03:04:30;;;;;;;8.35;5.93;;;;;;;10.84;74.79;96013.31;2018674;29;20061;-71
2023/06/15 03:05:33;;;;;;;11.18;5.88;;;;;;;10.79;74.18;96011.75;2018471;29;20436;-70
2023/06/15 03:06:36;;;;;;;8.93;5.70;;;;;;;10.80;74.73;96017.81;2018004;29;20149;-71
2023/06/15 03:07:40;;;;;;;8.52;6.13;;;;;;;10.77;74.99;96016.22;2019118;29;20060;-72
2023/06/15 03:08:59;;;;;;;9.00;6.03;;;;;;;10.74;75.26;96012.88;2013930;29;20054;-72
2023/06/15 03:10:04;;;;;;;8.05;5.30;;;;;;;10.68;75.16;96005.41;2011672;29;20049;-73
2023/06/15 03:11:08;;;;;;;7.65;5.47;;;;;;;10.64;74.53;96012.50;2012189;29;20050;-72
2023/06/15 03:12:09;;;;;;;7.90;5.97;;;;;;;10.62;74.44;96003.09;2019221;29;20041;-72
2023/06/15 03:13:14;;;;;;;7.18;5.43;;;;;;;10.69;74.62;96023.53;2019083;29;20052;-73
2023/06/15 03:14:15;;;;;;;7.55;5.55;;;;;;;10.68;75.55;96027.00;2012118;29;20462;-72
2023/06/15 03:15:18;;;;;;;11.48;5.97;;;;;;;10.69;75.63;96025.25;2011467;29;20082;-72
2023/06/15 03:16:20;;;;;;;8.05;5.63;;;;;;;10.69;75.40;96020.94;2011752;29;20053;-72
2023/06/15 03:17:24;;;;;;;7.18;5.43;;;;;;;10.70;75.77;96021.75;2011916;29;20393;-71
2023/06/15 03:18:27;;;;;;;6.30;5.40;;;;;;;10.64;74.86;96009.03;2010748;29;20492;-72
2023/06/15 03:19:28;;;;;;;8.25;5.70;;;;;;;10.68;75.13;96029.59;2018855;29;20069;-72
2023/06/15 03:20:33;;;;;;;9.02;6.07;;;;;;;10.58;75.28;96012.78;2018526;29;20057;-71
2023/06/15 03:21:37;;;;;;;8.65;5.70;;;;;;;10.69;75.71;96027.84;2011282;29;20060;-72
2023/06/15 03:22:39;;;;;;;7.10;5.70;;;;;;;10.68;75.63;96028.78;2018698;29;20061;-70
2023/06/15 03:23:42;;;;;;;8.15;5.88;;;;;;;10.67;74.99;96030.53;2010280;29;20061;-74
2023/06/15 03:24:44;;;;;;;8.10;5.57;;;;;;;10.69;75.12;96025.25;2011003;29;20080;-73
2023/06/15 03:25:45;;;;;;;8.80;5.60;;;;;;;10.68;74.68;96028.78;2018282;29;20461;-73
2023/06/15 03:26:47;;;;;;;7.88;5.93;;;;;;;10.67;74.77;96025.34;2010434;29;20061;-74
2023/06/15 03:27:49;;;;;;;7.88;5.70;;;;;;;10.68;74.92;96027.00;2003515;29;20402;-74
2023/06/15 03:28:52;;;;;;;8.18;5.82;;;;;;;10.69;75.89;96033.91;2011592;29;20058;-74
2023/06/15 03:29:54;;;;;;;8.77;5.63;;;;;;;10.69;75.71;96026.13;2018608;29;20040;-74
2023/06/15 03:30:56;;;;;;;9.43;5.65;;;;;;;10.69;75.39;96025.25;2010765;29;20068;-72
2023/06/15 03:31:58;;;;;;;7.10;5.63;;;;;;;10.66;75.91;96026.25;2011138;29;20056;-74
2023/06/15 03:32:59;;;;;;;7.05;5.75;;;;;;;10.68;75.65;96028.78;2018650;29;20065;-74
2023/06/15 03:34:01;;;;;;;6.88;5.72;;;;;;;10.69;75.61;96030.44;2018905;29;20077;-73
2023/06/15 03:35:03;;;;;;;7.00;5.68;;;;;;;10.69;75.16;96035.63;2018059;29;20476;-74
2023/06/15 03:36:04;;;;;;;7.90;5.72;;;;;;;10.68;76.23;96032.22;2018284;29;20076;-74
2023/06/15 03:37:07;;;;;;;11.93;6.50;;;;;;;10.68;75.21;96032.22;2011009;29;20064;-73
2023/06/15 03:38:12;;;;;;;10.68;5.95;;;;;;;10.69;76.03;96033.91;2011205;29;20072;-72
2023/06/15 03:39:13;;;;;;;6.85;5.90;;;;;;;10.69;75.06;96033.03;2010524;29;20049;-75
2023/06/15 03:40:15;;;;;;;7.80;5.57;;;;;;;10.70;75.05;96032.16;2010969;29;20053;-73
2023/06/15 03:41:16;;;;;;;8.15;5.82;;;;;;;10.70;75.73;96038.19;2018075;29;20065;-74
2023/06/15 03:42:17;;;;;;;9.20;5.78;;;;;;;10.72;75.05;96040.69;2018120;29;20057;-74
2023/06/15 03:43:19;;;;;;;7.97;6.18;;;;;;;10.74;75.22;96044.06;2011150;29;20065;-73
2023/06/15 03:44:21;;;;;;;7.93;6.15;;;;;;;10.73;75.66;96045.81;2011050;29;20379;-73
2023/06/15 03:45:22;;;;;;;8.02;5.80;;;;;;;10.74;75.40;96044.91;2010785;29;20058;-74
2023/06/15 03:46:25;;;;;;;9.38;6.47;;;;;;;10.75;75.63;96038.81;2011115;29;20069;-74
2023/06/15 03:47:27;;;;;;;7.15;6.03;;;;;;;10.71;75.55;96039.00;2010996;29;20050;-74
2023/06/15 03:48:28;;;;;;;9.77;6.00;;;;;;;10.77;75.78;96047.38;2010765;29;20475;-72
2023/06/15 03:49:29;;;;;;;9.85;6.20;;;;;;;10.78;75.88;96043.00;2018333;29;20057;-75
2023/06/15 03:50:31;;;;;;;8.55;6.15;;;;;;;10.80;75.45;96049.00;2018333;29;20417;-73
2023/06/15 03:51:32;;;;;;;8.98;6.20;;;;;;;10.79;76.15;96047.28;2010644;29;20437;-72
2023/06/15 03:52:33;;;;;;;8.05;6.18;;;;;;;10.80;75.47;96046.38;2010923;29;20061;-73
2023/06/15 03:53:36;;;;;;;8.70;5.93;;;;;;;10.81;75.99;96045.47;2010603;29;20068;-74
2023/06/15 03:54:37;;;;;;;7.72;5.90;;;;;;;10.81;75.32;96046.31;2010465;29;20510;-73
2023/06/15 03:55:39;;;;;;;7.90;6.30;;;;;;;10.83;75.13;96051.44;2010235;29;20522;-74
2023/06/15 03:56:41;;;;;;;7.72;5.78;;;;;;;10.87;75.86;96049.53;2010906;29;20403;-73
2023/06/15 03:57:42;;;;;;;10.23;6.45;;;;;;;10.87;75.34;96044.34;2018299;29;20053;-73
2023/06/15 03:58:43;;;;;;;7.90;5.90;;;;;;;10.89;75.44;96056.34;2018830;29;20401;-74
2023/06/15 03:59:45;;;;;;;10.73;6.45;;;;;;;10.92;75.11;96053.59;2010535;29;20105;-74
2023/06/15 04:00:46;;;;;;;8.20;5.85;;;;;;;10.94;75.29;96056.13;2010355;29;20076;-73
2023/06/15 04:01:49;;;;;;;9.52;5.97;;;;;;;10.95;75.46;96058.63;2018395;29;20064;-74
2023/06/15 04:02:50;;;;;;;8.93;5.85;;;;;;;10.96;75.45;96054.28;2010265;29;20064;-72
2023/06/15 04:03:54;;;;;;;6.75;5.47;;;;;;;10.94;75.84;96054.38;2011088;29;20542;-74
2023/06/15 04:04:56;;;;;;;8.40;5.55;;;;;;;10.97;75.59;96050.78;2018209;29;20057;-73
2023/06/15 04:06:01;;;;;;;8.68;6.00;;;;;;;10.99;74.88;96056.75;2017970;29;20057;-74
2023/06/15 04:07:02;;;;;;;7.18;5.90;;;;;;;10.99;75.36;96064.53;2018399;29;20429;-73
2023/06/15 04:08:03;;;;;;;9.00;5.72;;;;;;;11.03;75.19;96059.09;2010677;29;20376;-73
2023/06/15 04:09:05;;;;;;;8.57;5.90;;;;;;;11.05;74.75;96064.25;2010679;29;20072;-73
2023/06/15 04:10:08;;;;;;;9.82;5.82;;;;;;;11.08;75.48;96061.50;2010808;29;20057;-72
2023/06/15 04:11:09;;;;;;;8.50;6.22;;;;;;;11.12;74.54;96065.63;2011378;29;20522;-73
2023/06/15 04:12:10;;;;;;;8.20;5.47;;;;;;;11.18;75.39;96064.50;2003011;29;20061;-73
2023/06/15 04:13:12;;;;;;;9.38;5.82;;;;;;;11.22;74.82;96073.81;2003731;29;20096;-73
2023/06/15 04:14:14;;;;;;;9.50;5.85;;;;;;;11.27;74.39;96067.47;2011393;29;20062;-73
2023/06/15 04:15:15;;;;;;;10.50;6.60;;;;;;;11.34;74.53;96067.19;2010583;29;20049;-73
2023/06/15 04:16:19;;;;;;;9.20;5.53;;;;;;;11.41;74.07;96065.97;2003510;29;20077;-73
2023/06/15 04:17:20;;;;;;;11.13;6.57;;;;;;;11.48;74.49;96072.53;2010961;29;20409;-73
2023/06/15 04:18:22;;;;;;;9.23;5.80;;;;;;;11.54;74.42;96077.44;2010697;29;20053;-73
2023/06/15 04:19:25;;;;;;;7.55;6.03;;;;;;;11.56;73.85;96075.59;2018848;29;20075;-73
2023/06/15 04:20:31;;;;;;;7.50;5.90;;;;;;;11.58;73.65;96070.34;2018554;29;20110;-73
2023/06/15 04:21:33;;;;;;;7.82;5.47;;;;;;;11.60;73.63;96082.34;2018226;29;20064;-73
2023/06/15 04:22:35;;;;;;;8.10;5.68;;;;;;;11.61;73.62;96073.63;2018418;29;20057;-73
2023/06/15 04:23:36;;;;;;;8.73;6.07;;;;;;;11.62;74.15;96077.06;2018612;29;20049;-73
2023/06/15 04:24:38;;;;;;;10.65;5.80;;;;;;;11.65;74.43;96079.50;2018443;29;20064;-73
2023/06/15 04:25:43;;;;;;;9.43;5.97;;;;;;;11.66;73.65;96078.59;2010633;29;20060;-73
2023/06/15 04:26:46;;;;;;;9.82;6.15;;;;;;;11.71;73.92;96079.22;2011521;29;20533;-72
2023/06/15 04:27:49;;;;;;;8.32;5.65;;;;;;;11.79;72.65;96074.47;2010993;29;20049;-73
2023/06/15 04:28:57;;;;;;;8.98;6.55;;;;;;;11.86;72.78;96080.22;2017921;29;20049;-72
2023/06/15 04:29:59;;;;;;;9.98;6.00;;;;;;;11.86;71.83;96075.00;2018305;29;20052;-73
2023/06/15 04:31:08;;;;;;;10.32;5.90;;;;;;;11.98;71.74;96086.56;2010650;29;20437;-73
2023/06/15 04:32:09;;;;;;;7.13;5.75;;;;;;;12.02;71.54;96088.09;2018637;29;20092;-72
2023/06/15 04:33:13;;;;;;;10.23;6.60;;;;;;;12.04;71.54;96092.28;2011415;29;20505;-72
2023/06/15 04:34:16;;;;;;;9.77;5.90;;;;;;;12.10;71.75;96084.16;2011540;29;20061;-73
2023/06/15 04:35:18;;;;;;;8.65;5.80;;;;;;;12.17;71.08;96083.84;2010754;29;20101;-73
2023/06/15 04:36:20;;;;;;;10.40;6.07;;;;;;;12.16;71.49;96072.56;2018576;29;20432;-72
2023/06/15 04:37:23;;;;;;;8.30;6.18;;;;;;;12.28;70.92;96084.13;2011418;29;20061;-72
2023/06/15 04:38:25;;;;;;;7.25;5.38;;;;;;;12.26;70.45;96073.78;2018589;29;20096;-74
2023/06/15 04:39:28;;;;;;;13.02;6.07;;;;;;;12.38;69.93;96087.94;2018440;29;20053;-72
2023/06/15 04:40:33;;;;;;;10.88;5.60;;;;;;;12.43;69.80;96088.53;2011612;29;20053;-73
2023/06/15 04:41:35;;;;;;;8.73;5.72;;;;;;;12.49;68.98;96083.00;2011380;29;20060;-73
2023/06/15 04:42:40;;;;;;;9.90;5.82;;;;;;;12.53;68.36;96079.28;2010622;29;20072;-64
2023/06/15 04:43:42;;;;;;;9.77;6.25;;;;;;;12.66;67.94;96082.06;2002912;29;20065;-60
2023/06/15 04:44:44;;;;;;;8.13;5.75;;;;;;;12.77;68.39;96082.31;2010342;29;20049;-60
2023/06/15 04:45:45;;;;;;;8.35;5.82;;;;;;;12.89;68.00;96085.22;2018054;29;20074;-59
2023/06/15 04:46:48;;;;;;;8.10;5.32;;;;;;;12.98;67.65;96084.69;2017974;29;20049;-60
2023/06/15 04:47:50;;;;;;;10.68;5.85;;;;;;;13.04;66.86;96084.34;2018005;29;20433;-61
2023/06/15 04:48:51;;;;;;;7.95;5.68;;;;;;;13.11;66.77;96090.06;2018002;29;20053;-61
2023/06/15 04:49:54;;;;;;;9.13;6.00;;;;;;;13.16;66.42;96093.28;2017502;29;20053;-60
2023/06/15 04:50:56;;;;;;;9.75;5.32;;;;;;;13.13;65.99;96073.41;2010572;29;20081;-58
2023/06/15 04:51:57;;;;;;;8.48;5.88;;;;;;;13.21;65.74;96088.63;2009729;29;20548;-64
2023/06/15 04:52:59;;;;;;;7.47;5.30;;;;;;;13.25;65.97;96087.53;2017834;29;20048;-59